Time;durP1;ratioP1;P1;durP2;ratioP2;P2;SDS_P1;SDS_P2;PMS_P1;PMS_P2;Temp;Humidity;BMP_temperature;BMP_pressure;BME280_temperature;BME280_humidity;BME280_pressure;Samples;Min_cycle;Max_cycle;Signal;HPM_P1;HPM_P2
2021/08/07 00:00:41;;;;;;;2.10;1.00;;;18.90;71.30;;;;;;5049855;28;20048;-75
2021/08/07 00:03:07;;;;;;;2.42;1.10;;;18.90;71.50;;;;;;5052282;28;20025;-78
2021/08/07 00:05:32;;;;;;;1.67;1.02;;;18.80;71.90;;;;;;5051639;28;20033;-78
2021/08/07 00:07:58;;;;;;;3.00;1.50;;;18.80;72.30;;;;;;5049509;28;20056;-76
2021/08/07 00:10:24;;;;;;;2.67;1.02;;;18.70;72.70;;;;;;5052044;28;20090;-75
2021/08/07 00:12:49;;;;;;;2.47;1.38;;;18.70;72.80;;;;;;5050817;28;20104;-75
2021/08/07 00:15:15;;;;;;;2.55;1.55;;;18.70;73.00;;;;;;5052199;28;20120;-75
2021/08/07 00:17:41;;;;;;;2.38;1.30;;;18.70;74.20;;;;;;5050963;28;20048;-76
2021/08/07 00:20:07;;;;;;;1.70;1.20;;;18.60;73.80;;;;;;5050640;28;20040;-76
2021/08/07 00:22:32;;;;;;;1.83;1.10;;;18.60;73.80;;;;;;5051237;28;20028;-76
2021/08/07 00:24:58;;;;;;;2.63;1.20;;;18.60;74.20;;;;;;5051533;28;20036;-76
2021/08/07 00:27:23;;;;;;;3.05;1.50;;;18.50;74.40;;;;;;5050782;28;20066;-77
2021/08/07 00:29:49;;;;;;;2.10;1.30;;;18.50;74.60;;;;;;5037654;28;20060;-78
2021/08/07 00:32:15;;;;;;;3.15;1.30;;;18.50;74.70;;;;;;5043449;28;20123;-76
2021/08/07 00:34:40;;;;;;;2.65;1.30;;;18.40;75.40;;;;;;5044386;28;20440;-77
2021/08/07 00:37:07;;;;;;;2.13;1.20;;;18.50;74.80;;;;;;5047660;28;20033;-74
2021/08/07 00:39:33;;;;;;;4.07;1.48;;;18.50;74.90;;;;;;5048768;28;20158;-74
2021/08/07 00:41:59;;;;;;;1.77;1.10;;;18.40;74.80;;;;;;5040866;28;20108;-75
2021/08/07 00:44:24;;;;;;;1.73;1.00;;;18.50;74.80;;;;;;5049090;28;20071;-75
2021/08/07 00:46:50;;;;;;;4.13;1.60;;;18.60;74.70;;;;;;5044797;28;20040;-73
2021/08/07 00:49:16;;;;;;;3.28;1.40;;;18.50;74.70;;;;;;5044607;28;20705;-75
2021/08/07 00:51:41;;;;;;;2.70;1.35;;;18.50;74.70;;;;;;5046931;28;20033;-75
2021/08/07 00:54:07;;;;;;;1.85;1.17;;;18.40;74.80;;;;;;5037594;28;20042;-75
2021/08/07 00:56:32;;;;;;;1.90;1.00;;;18.40;74.90;;;;;;5040859;28;20108;-75
2021/08/07 00:58:58;;;;;;;3.15;1.20;;;18.40;74.90;;;;;;5050722;28;20047;-76
2021/08/07 01:01:28;;;;;;;3.13;1.10;;;18.40;74.80;;;;;;5045589;28;20029;-75
2021/08/07 01:03:56;;;;;;;2.72;1.48;;;18.50;74.90;;;;;;5046549;28;20541;-76
2021/08/07 01:06:45;;;;;;;1.85;1.02;;;18.50;74.80;;;;;;5044133;28;20094;-76
2021/08/07 01:09:46;;;;;;;5.68;1.67;;;18.40;74.80;;;;;;5046429;28;20068;-76
2021/08/07 01:12:30;;;;;;;2.35;1.20;;;18.40;74.90;;;;;;5048196;28;20021;-76
2021/08/07 01:14:59;;;;;;;2.92;1.70;;;18.40;75.00;;;;;;5050300;28;20094;-76
2021/08/07 01:17:27;;;;;;;2.47;1.50;;;18.30;75.10;;;;;;5049370;28;20036;-74
2021/08/07 01:20:13;;;;;;;1.65;1.00;;;18.30;75.40;;;;;;5050230;28;20029;-77
2021/08/07 01:22:45;;;;;;;2.13;1.38;;;18.30;75.40;;;;;;5047673;28;20104;-77
2021/08/07 01:25:15;;;;;;;3.25;1.40;;;18.30;75.50;;;;;;5042698;28;20035;-77
2021/08/07 01:27:42;;;;;;;3.90;1.40;;;18.30;75.50;;;;;;5050016;28;20053;-78
2021/08/07 01:30:12;;;;;;;1.48;1.17;;;18.30;75.60;;;;;;5040510;28;20096;-77
2021/08/07 01:32:38;;;;;;;2.90;1.20;;;18.40;75.60;;;;;;5039832;28;20017;-77
2021/08/07 01:35:07;;;;;;;2.88;1.10;;;18.40;75.50;;;;;;5042107;28;20021;-78
2021/08/07 01:37:33;;;;;;;2.60;1.48;;;18.40;75.60;;;;;;5049452;28;20037;-78
2021/08/07 01:39:59;;;;;;;4.20;1.77;;;18.40;75.80;;;;;;5040252;28;20033;-77
2021/08/07 01:42:26;;;;;;;2.80;1.50;;;18.40;76.00;;;;;;5034267;28;20036;-77
2021/08/07 01:44:51;;;;;;;5.38;1.85;;;18.40;76.10;;;;;;5042498;28;20063;-78
2021/08/07 01:47:37;;;;;;;4.28;2.22;;;18.40;76.30;;;;;;5048628;28;20471;-77
2021/08/07 01:50:33;;;;;;;2.10;1.40;;;18.30;77.00;;;;;;5041126;28;20499;-76
2021/08/07 01:53:01;;;;;;;4.78;1.85;;;18.20;77.10;;;;;;5046074;28;20025;-76
2021/08/07 01:55:33;;;;;;;2.85;1.83;;;18.20;77.30;;;;;;5043962;28;20025;-77
2021/08/07 01:58:11;;;;;;;3.50;1.88;;;18.20;77.50;;;;;;5037472;28;20059;-77
2021/08/07 02:00:41;;;;;;;2.55;1.58;;;18.10;78.20;;;;;;5043363;28;20021;-77
2021/08/07 02:03:08;;;;;;;2.88;1.55;;;18.10;78.30;;;;;;5045627;28;20116;-76
2021/08/07 02:05:34;;;;;;;3.47;1.50;;;18.10;78.40;;;;;;5048188;28;20009;-76
2021/08/07 02:08:02;;;;;;;2.78;1.60;;;18.20;78.30;;;;;;5044106;28;20404;-76
2021/08/07 02:10:28;;;;;;;2.75;1.90;;;18.20;78.30;;;;;;5045657;28;20044;-76
2021/08/07 02:12:54;;;;;;;2.65;1.98;;;18.10;78.40;;;;;;5045487;28;20032;-76
2021/08/07 02:15:21;;;;;;;3.60;1.65;;;18.10;78.60;;;;;;5049650;28;20029;-76
2021/08/07 02:17:47;;;;;;;2.72;1.50;;;18.10;78.60;;;;;;5045270;28;20116;-76
2021/08/07 02:20:15;;;;;;;1.73;1.20;;;18.10;78.60;;;;;;5044592;28;20052;-76
2021/08/07 02:22:43;;;;;;;2.88;1.77;;;18.10;78.60;;;;;;5040242;28;20025;-76
2021/08/07 02:25:10;;;;;;;2.33;1.70;;;18.10;78.60;;;;;;5048198;28;20032;-77
2021/08/07 02:27:37;;;;;;;2.72;1.85;;;18.10;78.60;;;;;;5037885;28;20295;-77
2021/08/07 02:30:04;;;;;;;3.22;1.88;;;18.10;78.70;;;;;;5046072;28;20538;-76
2021/08/07 02:32:30;;;;;;;1.67;1.42;;;18.10;78.60;;;;;;5044619;28;20029;-76
2021/08/07 02:34:56;;;;;;;3.30;1.52;;;18.10;78.60;;;;;;5051567;28;20048;-76
2021/08/07 02:37:21;;;;;;;3.45;2.05;;;18.00;78.60;;;;;;5059345;28;20021;-75
2021/08/07 02:39:48;;;;;;;3.20;1.80;;;18.00;78.80;;;;;;5049025;28;20025;-76
2021/08/07 02:42:14;;;;;;;3.60;1.92;;;17.90;78.90;;;;;;5042452;28;20428;-76
2021/08/07 02:44:40;;;;;;;2.65;1.80;;;17.90;79.00;;;;;;5048536;28;20090;-75
2021/08/07 02:47:05;;;;;;;4.50;1.90;;;17.80;79.20;;;;;;5043661;28;20065;-75
2021/08/07 02:49:31;;;;;;;2.50;1.70;;;17.80;79.50;;;;;;5048893;28;20138;-74
2021/08/07 02:51:57;;;;;;;3.08;1.52;;;17.70;79.50;;;;;;5049185;28;20494;-76
2021/08/07 02:54:24;;;;;;;3.10;1.63;;;17.70;79.60;;;;;;5054783;28;20124;-76
2021/08/07 02:56:50;;;;;;;3.83;2.15;;;17.70;79.60;;;;;;5049423;28;20120;-76
2021/08/07 02:59:15;;;;;;;3.83;2.20;;;17.70;79.70;;;;;;5044356;28;20172;-76
2021/08/07 03:01:41;;;;;;;6.05;2.70;;;17.60;80.00;;;;;;5048997;28;20017;-76
2021/08/07 03:04:06;;;;;;;3.75;2.30;;;17.60;80.30;;;;;;5047664;28;20037;-76
2021/08/07 03:06:32;;;;;;;3.92;2.13;;;17.50;80.30;;;;;;5041162;28;20027;-75
2021/08/07 03:08:57;;;;;;;3.90;2.15;;;17.60;80.50;;;;;;5045186;28;20043;-75
2021/08/07 03:11:24;;;;;;;4.05;2.17;;;17.50;80.40;;;;;;5044385;28;20100;-76
2021/08/07 03:13:50;;;;;;;3.22;1.70;;;17.50;80.70;;;;;;5047128;28;20079;-76
2021/08/07 03:16:15;;;;;;;5.28;2.00;;;17.50;81.20;;;;;;5040999;28;20045;-75
2021/08/07 03:18:40;;;;;;;3.78;2.17;;;17.60;80.70;;;;;;5044395;28;20016;-76
2021/08/07 03:21:06;;;;;;;3.55;1.92;;;17.50;80.50;;;;;;5041883;28;20431;-75
2021/08/07 03:23:31;;;;;;;4.97;2.40;;;17.60;80.70;;;;;;5050151;28;20498;-77
2021/08/07 03:25:57;;;;;;;4.15;2.38;;;17.50;80.70;;;;;;5050959;28;20387;-77
2021/08/07 03:28:23;;;;;;;3.17;2.00;;;17.50;80.80;;;;;;5049206;28;20032;-77
2021/08/07 03:30:48;;;;;;;3.28;1.98;;;17.50;80.80;;;;;;5044700;28;20079;-77
2021/08/07 03:33:14;;;;;;;3.33;1.38;;;17.50;80.80;;;;;;5036565;28;20644;-77
2021/08/07 03:35:39;;;;;;;2.97;1.73;;;17.50;80.80;;;;;;5053056;28;20031;-78
2021/08/07 03:38:05;;;;;;;3.25;1.50;;;17.50;80.60;;;;;;5053787;28;21846;-77
2021/08/07 03:40:30;;;;;;;3.45;1.70;;;17.50;80.50;;;;;;5042309;28;20025;-77
2021/08/07 03:42:56;;;;;;;4.35;1.85;;;17.50;80.60;;;;;;5050624;28;20063;-77
2021/08/07 03:45:22;;;;;;;2.28;1.48;;;17.50;80.60;;;;;;5052180;28;20483;-76
2021/08/07 03:47:50;;;;;;;3.55;1.70;;;17.40;80.70;;;;;;5051806;28;20024;-77
2021/08/07 03:50:17;;;;;;;4.28;1.52;;;17.40;81.50;;;;;;5051925;28;20060;-77
2021/08/07 03:52:43;;;;;;;3.35;1.77;;;17.40;80.80;;;;;;5047302;28;20026;-77
2021/08/07 03:55:09;;;;;;;2.70;1.60;;;17.40;80.80;;;;;;5038934;28;20025;-77
2021/08/07 03:57:47;;;;;;;3.28;1.73;;;17.30;80.70;;;;;;5050646;28;20028;-78
2021/08/07 04:00:13;;;;;;;2.33;1.13;;;17.40;80.70;;;;;;5050578;28;20037;-78
2021/08/07 04:02:38;;;;;;;2.22;1.52;;;17.40;80.60;;;;;;5051275;28;20017;-78
2021/08/07 04:05:04;;;;;;;2.28;1.45;;;17.40;80.50;;;;;;5051408;28;20472;-76
2021/08/07 04:07:30;;;;;;;2.08;1.15;;;17.40;80.30;;;;;;5042428;28;20039;-78
2021/08/07 04:09:55;;;;;;;2.25;1.50;;;17.50;80.30;;;;;;5051581;28;20118;-76
2021/08/07 04:12:20;;;;;;;3.88;1.50;;;17.50;80.30;;;;;;5045210;28;20017;-76
2021/08/07 04:14:46;;;;;;;3.78;1.23;;;17.50;80.20;;;;;;5051067;28;20480;-77
2021/08/07 04:17:11;;;;;;;1.98;1.20;;;17.50;80.40;;;;;;5041736;28;20029;-77
2021/08/07 04:19:37;;;;;;;2.47;1.60;;;17.50;80.30;;;;;;5047161;28;20493;-77
2021/08/07 04:22:03;;;;;;;2.38;1.33;;;17.50;80.30;;;;;;5045076;28;20056;-77
2021/08/07 04:24:28;;;;;;;2.97;1.55;;;17.50;80.30;;;;;;5044744;28;20422;-77
2021/08/07 04:26:54;;;;;;;2.15;1.40;;;17.50;80.20;;;;;;5048165;28;20053;-77
2021/08/07 04:29:19;;;;;;;4.43;1.73;;;17.50;80.30;;;;;;5042603;28;20055;-76
2021/08/07 04:31:45;;;;;;;2.35;1.48;;;17.60;80.30;;;;;;5044000;28;20094;-77
2021/08/07 04:34:10;;;;;;;2.03;1.40;;;17.60;80.20;;;;;;5039379;28;20032;-77
2021/08/07 04:36:36;;;;;;;2.15;1.40;;;17.60;80.20;;;;;;5050186;28;20110;-77
2021/08/07 04:39:02;;;;;;;2.22;1.58;;;17.60;80.30;;;;;;5050225;28;20044;-77
2021/08/07 04:41:27;;;;;;;3.15;1.55;;;17.60;80.30;;;;;;5052414;28;20329;-76
2021/08/07 04:43:52;;;;;;;3.55;1.60;;;17.60;80.20;;;;;;5052504;28;20483;-75
2021/08/07 04:46:18;;;;;;;2.08;1.40;;;17.60;80.20;;;;;;5047033;28;20025;-76
2021/08/07 04:48:43;;;;;;;3.15;1.25;;;17.60;80.10;;;;;;5054243;28;20045;-75
2021/08/07 04:51:09;;;;;;;2.58;1.52;;;17.70;80.00;;;;;;5054869;28;20379;-75
2021/08/07 04:53:35;;;;;;;4.03;1.73;;;17.70;80.00;;;;;;5044133;28;20025;-75
2021/08/07 04:56:00;;;;;;;1.88;1.40;;;17.70;80.00;;;;;;5044838;28;20086;-74
2021/08/07 04:58:26;;;;;;;2.65;1.30;;;17.70;80.00;;;;;;5049332;28;20041;-76
2021/08/07 05:00:51;;;;;;;1.90;1.50;;;17.70;80.00;;;;;;5043949;28;20034;-75
2021/08/07 05:03:17;;;;;;;4.47;1.70;;;17.70;80.10;;;;;;5045458;28;20024;-76
2021/08/07 05:05:42;;;;;;;3.13;1.63;;;17.70;80.10;;;;;;5042569;28;20379;-76
2021/08/07 05:08:08;;;;;;;5.32;1.80;;;17.80;80.00;;;;;;5035482;28;20120;-75
2021/08/07 05:10:33;;;;;;;3.60;1.60;;;17.80;80.10;;;;;;5049751;28;20033;-76
2021/08/07 05:12:59;;;;;;;2.35;1.60;;;17.80;80.10;;;;;;5047009;28;20388;-77
2021/08/07 05:15:24;;;;;;;3.65;1.60;;;17.90;80.00;;;;;;5054064;28;20056;-78
2021/08/07 05:17:50;;;;;;;2.90;1.70;;;17.90;79.80;;;;;;5046576;28;20514;-77
2021/08/07 05:20:15;;;;;;;4.50;1.65;;;17.90;79.70;;;;;;5043914;28;20028;-76
2021/08/07 05:22:41;;;;;;;2.35;1.50;;;18.00;79.80;;;;;;5046304;28;20017;-77
2021/08/07 05:25:08;;;;;;;2.13;1.50;;;18.00;79.70;;;;;;5039413;28;20032;-77
2021/08/07 05:27:34;;;;;;;2.22;1.38;;;18.00;79.50;;;;;;5046408;28;20033;-76
2021/08/07 05:29:59;;;;;;;1.73;1.30;;;18.10;79.40;;;;;;5047590;28;20047;-76
2021/08/07 05:32:25;;;;;;;2.78;1.40;;;18.10;79.30;;;;;;5044101;28;20025;-76
2021/08/07 05:34:51;;;;;;;1.67;1.20;;;18.10;79.30;;;;;;5049308;28;20032;-75
2021/08/07 05:37:16;;;;;;;4.32;1.70;;;18.10;79.30;;;;;;5047857;28;20059;-76
2021/08/07 05:39:42;;;;;;;3.63;1.40;;;18.20;79.10;;;;;;5041357;28;20055;-76
2021/08/07 05:42:07;;;;;;;2.35;1.27;;;18.20;78.90;;;;;;5046836;28;20025;-76
2021/08/07 05:44:33;;;;;;;2.55;1.17;;;18.20;78.70;;;;;;5044832;28;20098;-77
2021/08/07 05:46:58;;;;;;;2.30;1.20;;;18.40;78.50;;;;;;5047295;28;20450;-76
2021/08/07 05:49:24;;;;;;;1.73;1.40;;;19.10;77.70;;;;;;5046510;28;20049;-76
2021/08/07 05:51:49;;;;;;;2.78;1.50;;;19.40;76.00;;;;;;5045097;28;20078;-76
2021/08/07 05:54:16;;;;;;;2.65;1.00;;;20.20;74.10;;;;;;5046769;28;20029;-76
2021/08/07 05:56:42;;;;;;;2.72;1.10;;;20.90;72.40;;;;;;5035903;28;20024;-76
2021/08/07 05:59:07;;;;;;;2.28;1.10;;;22.00;70.10;;;;;;5048002;28;20036;-76
2021/08/07 06:01:33;;;;;;;4.45;1.48;;;22.10;67.50;;;;;;5046672;28;20021;-77
2021/08/07 06:03:58;;;;;;;2.83;1.40;;;21.50;67.00;;;;;;5045826;28;20029;-76
2021/08/07 06:06:24;;;;;;;2.40;1.20;;;21.00;67.90;;;;;;5047910;28;20025;-76
2021/08/07 06:08:49;;;;;;;2.30;1.00;;;20.40;69.30;;;;;;5044710;28;20092;-76
2021/08/07 06:11:15;;;;;;;3.08;0.80;;;20.10;70.60;;;;;;5037908;28;20440;-77
2021/08/07 06:13:40;;;;;;;1.35;0.85;;;19.90;71.30;;;;;;5045753;28;20036;-78
2021/08/07 06:16:06;;;;;;;2.17;0.90;;;19.80;72.00;;;;;;5050645;28;20036;-77
2021/08/07 06:18:31;;;;;;;3.22;1.15;;;19.90;72.00;;;;;;5042724;28;20036;-76
2021/08/07 06:20:57;;;;;;;2.03;0.93;;;19.90;72.00;;;;;;5043567;28;20024;-76
2021/08/07 06:23:22;;;;;;;1.80;0.95;;;20.70;70.60;;;;;;5046392;28;20641;-77
2021/08/07 06:25:48;;;;;;;4.28;1.20;;;20.70;69.40;;;;;;5045129;28;20025;-77
2021/08/07 06:28:13;;;;;;;1.92;0.98;;;20.40;69.70;;;;;;5046070;28;20017;-76
2021/08/07 06:30:43;;;;;;;1.27;0.90;;;20.30;70.10;;;;;;5041000;28;20040;-76
2021/08/07 06:33:09;;;;;;;1.38;0.88;;;20.00;70.50;;;;;;5040604;28;20021;-76
2021/08/07 06:35:35;;;;;;;2.72;1.20;;;19.90;71.00;;;;;;5044398;28;20021;-77
2021/08/07 06:38:01;;;;;;;1.67;1.30;;;20.50;70.80;;;;;;5045182;28;20168;-77
2021/08/07 06:40:27;;;;;;;2.55;0.90;;;21.70;67.80;;;;;;5046034;28;20091;-79
2021/08/07 06:42:52;;;;;;;1.70;1.13;;;22.50;65.30;;;;;;5047673;28;20024;-78
2021/08/07 06:45:18;;;;;;;3.13;1.00;;;22.30;64.30;;;;;;5044887;28;20396;-77
2021/08/07 06:47:43;;;;;;;3.70;1.50;;;22.70;64.30;;;;;;5042422;28;20449;-78
2021/08/07 06:50:09;;;;;;;3.65;1.10;;;22.60;62.90;;;;;;5048287;28;20438;-80
2021/08/07 06:52:35;;;;;;;3.17;1.08;;;22.90;62.90;;;;;;5047704;28;20065;-77
2021/08/07 06:55:02;;;;;;;2.28;0.90;;;24.10;60.80;;;;;;5048710;28;20057;-81
2021/08/07 06:57:27;;;;;;;2.60;1.20;;;24.10;59.50;;;;;;5050807;28;20383;-77
2021/08/07 06:59:53;;;;;;;2.50;1.05;;;23.30;59.80;;;;;;5043411;28;20026;-78
2021/08/07 07:02:22;;;;;;;2.63;1.00;;;23.10;61.00;;;;;;5047345;28;20040;-78
2021/08/07 07:04:49;;;;;;;3.78;1.05;;;23.90;60.10;;;;;;5052626;28;20033;-77
2021/08/07 07:07:15;;;;;;;3.28;0.82;;;24.50;58.40;;;;;;5049754;28;20071;-78
2021/08/07 07:09:40;;;;;;;3.22;0.90;;;24.20;56.80;;;;;;5052100;28;20036;-77
2021/08/07 07:12:06;;;;;;;2.03;0.90;;;24.20;57.00;;;;;;5040353;28;20108;-78
2021/08/07 07:14:32;;;;;;;3.05;1.00;;;24.50;56.60;;;;;;5048371;28;20028;-77
2021/08/07 07:16:57;;;;;;;2.55;0.90;;;25.50;55.20;;;;;;5047998;28;20551;-78
2021/08/07 07:19:25;;;;;;;3.55;0.88;;;26.00;53.30;;;;;;5044774;28;20032;-77
2021/08/07 07:21:51;;;;;;;3.75;1.17;;;26.30;52.70;;;;;;5050595;28;20029;-78
2021/08/07 07:24:17;;;;;;;1.75;0.80;;;26.60;51.20;;;;;;5052162;28;20104;-79
2021/08/07 07:26:42;;;;;;;2.42;0.95;;;26.80;50.50;;;;;;5054314;28;20164;-78
2021/08/07 07:29:08;;;;;;;2.97;0.90;;;26.40;51.30;;;;;;5042991;28;20041;-77
2021/08/07 07:31:34;;;;;;;1.38;0.90;;;25.20;52.40;;;;;;5045466;28;20029;-77
2021/08/07 07:33:59;;;;;;;3.08;0.80;;;24.20;53.80;;;;;;5051419;28;20033;-78
2021/08/07 07:36:25;;;;;;;1.48;0.70;;;23.60;55.30;;;;;;5040541;28;20019;-78
2021/08/07 07:38:50;;;;;;;2.38;0.77;;;23.30;55.70;;;;;;5046528;28;20021;-76
2021/08/07 07:41:16;;;;;;;2.25;0.70;;;23.40;56.20;;;;;;5047600;28;20100;-76
2021/08/07 07:43:41;;;;;;;3.05;1.00;;;23.40;55.80;;;;;;5046826;28;20807;-76
2021/08/07 07:46:08;;;;;;;1.60;0.70;;;23.40;54.70;;;;;;5048434;28;20028;-76
2021/08/07 07:48:34;;;;;;;3.25;0.73;;;23.20;55.20;;;;;;5044329;28;20036;-77
2021/08/07 07:50:59;;;;;;;1.65;0.70;;;23.40;55.70;;;;;;5047258;28;20021;-77
2021/08/07 07:53:25;;;;;;;2.80;0.90;;;23.40;54.60;;;;;;5046782;28;20029;-77
2021/08/07 07:55:50;;;;;;;3.13;0.90;;;22.90;54.90;;;;;;5043499;28;20115;-78
2021/08/07 07:58:16;;;;;;;2.67;0.70;;;22.50;55.70;;;;;;5046389;28;20025;-77
2021/08/07 08:00:42;;;;;;;2.60;0.95;;;22.40;56.40;;;;;;5047556;28;20143;-78
2021/08/07 08:03:07;;;;;;;2.03;0.80;;;22.70;56.80;;;;;;5037611;28;20032;-77
2021/08/07 08:05:33;;;;;;;1.40;0.60;;;22.80;57.20;;;;;;5036595;28;20535;-77
2021/08/07 08:07:59;;;;;;;1.08;0.55;;;22.90;56.40;;;;;;5037001;28;20025;-78
2021/08/07 08:10:25;;;;;;;0.95;0.40;;;23.10;56.10;;;;;;5035586;28;20147;-78
2021/08/07 08:12:50;;;;;;;1.90;0.73;;;23.40;56.20;;;;;;5044888;28;20133;-76
2021/08/07 08:15:16;;;;;;;2.33;0.85;;;23.50;54.50;;;;;;5041893;28;20088;-77
2021/08/07 08:17:42;;;;;;;1.63;0.70;;;23.40;54.30;;;;;;5047727;28;20020;-77
2021/08/07 08:20:09;;;;;;;2.33;1.00;;;23.30;53.10;;;;;;5046522;28;20123;-79
2021/08/07 08:22:35;;;;;;;1.98;0.77;;;23.00;52.80;;;;;;5042158;28;20396;-79
2021/08/07 08:25:02;;;;;;;2.13;0.85;;;22.70;53.60;;;;;;5049552;28;20028;-78
2021/08/07 08:27:27;;;;;;;1.65;0.57;;;22.70;54.20;;;;;;5048357;28;20029;-80
2021/08/07 08:29:54;;;;;;;1.55;0.80;;;22.80;54.10;;;;;;5049138;28;20115;-78
2021/08/07 08:32:19;;;;;;;1.08;0.60;;;22.90;54.70;;;;;;5043384;28;20028;-80
2021/08/07 08:34:45;;;;;;;1.83;0.65;;;23.00;54.70;;;;;;5048655;28;20025;-78
2021/08/07 08:37:11;;;;;;;2.75;0.88;;;23.20;54.90;;;;;;5042308;28;20034;-78
2021/08/07 08:39:36;;;;;;;1.73;0.80;;;23.30;54.40;;;;;;5046380;28;20025;-78
2021/08/07 08:42:02;;;;;;;2.13;0.88;;;23.20;54.30;;;;;;5044260;28;20037;-79
2021/08/07 08:44:28;;;;;;;2.55;0.85;;;22.90;54.80;;;;;;5039823;28;20036;-79
2021/08/07 08:46:54;;;;;;;2.72;1.10;;;22.70;55.40;;;;;;5049217;28;20029;-79
2021/08/07 08:49:20;;;;;;;3.08;1.08;;;22.60;55.90;;;;;;5046087;28;20033;-79
2021/08/07 08:51:47;;;;;;;2.25;0.90;;;22.50;55.80;;;;;;5044127;28;20047;-79
2021/08/07 08:54:16;;;;;;;2.25;0.70;;;22.50;56.20;;;;;;5047316;28;20032;-79
2021/08/07 08:56:42;;;;;;;3.33;1.30;;;22.60;56.70;;;;;;5037022;28;20650;-79
2021/08/07 08:59:10;;;;;;;2.85;1.25;;;22.70;57.40;;;;;;5045316;28;20021;-79
2021/08/07 09:01:37;;;;;;;3.33;1.10;;;22.70;57.30;;;;;;5036933;28;20017;-78
2021/08/07 09:04:04;;;;;;;3.55;1.00;;;22.70;57.60;;;;;;5044487;28;20036;-79
2021/08/07 09:06:33;;;;;;;2.58;0.93;;;22.70;57.30;;;;;;5038169;28;20029;-79
2021/08/07 09:09:08;;;;;;;4.22;1.05;;;22.80;57.60;;;;;;5046979;28;20104;-79
2021/08/07 09:11:35;;;;;;;2.88;0.95;;;22.90;57.70;;;;;;5050432;28;20096;-79
2021/08/07 09:14:25;;;;;;;3.78;1.20;;;23.00;57.30;;;;;;5050087;28;20533;-79
2021/08/07 09:17:16;;;;;;;2.42;1.10;;;22.90;57.50;;;;;;5038134;28;20081;-80
2021/08/07 09:19:41;;;;;;;2.58;0.98;;;23.00;57.80;;;;;;5046302;28;20037;-80
2021/08/07 09:22:17;;;;;;;3.50;1.35;;;23.00;57.80;;;;;;5050629;28;20024;-79
2021/08/07 09:25:05;;;;;;;3.13;1.10;;;23.00;57.70;;;;;;5046023;28;20025;-78
2021/08/07 09:27:41;;;;;;;3.33;1.45;;;22.90;57.50;;;;;;5048233;28;20060;-79
2021/08/07 09:30:18;;;;;;;2.25;1.10;;;22.90;57.70;;;;;;5050141;28;20544;-80
2021/08/07 09:32:56;;;;;;;3.72;1.33;;;22.90;58.30;;;;;;5038040;28;20017;-78
2021/08/07 09:35:24;;;;;;;2.80;1.00;;;22.80;58.20;;;;;;5038077;28;20036;-79
2021/08/07 09:38:12;;;;;;;2.28;1.10;;;22.80;58.30;;;;;;5045199;28;20506;-78
2021/08/07 09:41:02;;;;;;;2.13;1.00;;;22.80;58.50;;;;;;5045817;28;20025;-78
2021/08/07 09:43:30;;;;;;;2.83;1.05;;;22.70;58.70;;;;;;5047847;28;20392;-78
2021/08/07 09:46:00;;;;;;;2.40;0.98;;;22.60;58.80;;;;;;5046243;28;20426;-78
2021/08/07 09:48:41;;;;;;;2.15;1.20;;;22.40;59.20;;;;;;5044429;28;20337;-78
2021/08/07 09:51:16;;;;;;;2.13;0.82;;;22.30;59.50;;;;;;5042876;28;20727;-79
2021/08/07 09:53:42;;;;;;;1.73;0.98;;;22.20;60.10;;;;;;5047525;28;20483;-79
2021/08/07 09:56:08;;;;;;;2.10;1.10;;;22.10;60.30;;;;;;5046807;28;20036;-78
2021/08/07 09:58:34;;;;;;;2.22;1.13;;;22.00;60.20;;;;;;5045897;28;20043;-78
2021/08/07 10:01:00;;;;;;;1.65;1.15;;;22.10;60.60;;;;;;5046046;28;20021;-78
2021/08/07 10:03:29;;;;;;;2.92;1.20;;;22.30;60.70;;;;;;5047687;28;20048;-79
2021/08/07 10:05:55;;;;;;;3.03;1.23;;;22.40;60.80;;;;;;5046417;28;20483;-79
2021/08/07 10:08:21;;;;;;;1.88;1.10;;;22.60;60.70;;;;;;5046932;28;20064;-79
2021/08/07 10:11:07;;;;;;;2.28;1.10;;;22.80;60.60;;;;;;5043766;28;20503;-78
2021/08/07 10:13:32;;;;;;;1.10;0.90;;;22.90;60.20;;;;;;5041358;28;20086;-79
2021/08/07 10:15:58;;;;;;;2.13;1.17;;;23.00;58.80;;;;;;5046843;28;20029;-77
2021/08/07 10:18:26;;;;;;;1.45;1.00;;;22.80;58.00;;;;;;5046073;28;20438;-77
2021/08/07 10:20:54;;;;;;;2.53;1.00;;;22.80;58.70;;;;;;5043999;28;20029;-78
2021/08/07 10:23:20;;;;;;;3.17;1.48;;;22.80;59.00;;;;;;5044516;28;20025;-77
2021/08/07 10:25:47;;;;;;;2.05;1.02;;;22.70;59.10;;;;;;5046601;28;20104;-78
2021/08/07 10:28:14;;;;;;;3.75;1.30;;;22.60;59.50;;;;;;5044030;28;20815;-77
2021/08/07 10:30:44;;;;;;;1.60;0.90;;;22.60;59.10;;;;;;5049253;28;20059;-78
2021/08/07 10:33:11;;;;;;;3.22;1.15;;;22.60;59.30;;;;;;5047887;28;20025;-78
2021/08/07 10:35:37;;;;;;;3.58;1.23;;;22.70;59.00;;;;;;5048839;28;20438;-78
2021/08/07 10:38:03;;;;;;;2.13;1.10;;;22.70;58.60;;;;;;5044006;28;20032;-77
2021/08/07 10:40:28;;;;;;;2.80;0.90;;;22.80;58.80;;;;;;5047443;28;20512;-77
2021/08/07 10:42:55;;;;;;;2.63;1.02;;;22.80;58.40;;;;;;5043438;28;20645;-76
2021/08/07 10:45:22;;;;;;;4.20;1.02;;;23.00;58.00;;;;;;5050022;28;20032;-77
2021/08/07 10:47:49;;;;;;;3.47;1.40;;;23.20;57.40;;;;;;5049746;28;20021;-77
2021/08/07 10:50:24;;;;;;;3.92;1.13;;;23.30;56.50;;;;;;5044341;28;20507;-77
2021/08/07 10:52:49;;;;;;;3.50;1.00;;;23.50;56.60;;;;;;5043801;28;20033;-77
2021/08/07 10:55:45;;;;;;;2.97;1.20;;;23.70;56.20;;;;;;5045799;28;20025;-77
2021/08/07 10:58:30;;;;;;;2.92;1.23;;;23.70;56.00;;;;;;5046319;28;20037;-77
2021/08/07 11:01:25;;;;;;;1.98;0.80;;;23.80;55.90;;;;;;5050958;28;20500;-77
2021/08/07 11:04:04;;;;;;;4.10;1.13;;;23.80;55.60;;;;;;5043673;28;20730;-77
2021/08/07 11:06:42;;;;;;;4.90;0.90;;;24.00;53.60;;;;;;5042858;28;20211;-77
2021/08/07 11:09:36;;;;;;;2.05;0.90;;;23.90;53.60;;;;;;5046599;28;20108;-77
2021/08/07 11:12:10;;;;;;;2.80;1.10;;;23.80;53.60;;;;;;5026614;28;20033;-76
2021/08/07 11:14:42;;;;;;;5.10;1.35;;;23.70;54.10;;;;;;5042998;28;20143;-77
2021/08/07 11:17:10;;;;;;;2.10;1.00;;;23.80;53.80;;;;;;5040754;28;20129;-76
2021/08/07 11:19:48;;;;;;;4.38;1.20;;;24.00;53.90;;;;;;5047278;28;20573;-76
2021/08/07 11:22:15;;;;;;;3.72;1.13;;;24.10;52.90;;;;;;5040089;28;20098;-76
2021/08/07 11:24:43;;;;;;;2.53;0.90;;;24.20;53.80;;;;;;5061030;28;20029;-76
2021/08/07 11:27:12;;;;;;;2.40;0.80;;;24.20;52.90;;;;;;5046202;28;20040;-76
2021/08/07 11:30:16;;;;;;;3.45;1.00;;;24.20;53.00;;;;;;5047955;28;20116;-77
2021/08/07 11:33:03;;;;;;;4.15;1.35;;;24.10;52.60;;;;;;5039852;28;20017;-77
2021/08/07 11:35:35;;;;;;;3.88;1.00;;;24.00;51.30;;;;;;5044625;28;20082;-76
2021/08/07 11:38:22;;;;;;;;;;;23.90;51.50;;;;;;5047124;28;20025;-76
2021/08/07 11:41:08;;;;;;;4.18;1.08;;;24.00;51.60;;;;;;5049419;28;19919;-78
2021/08/07 11:43:41;;;;;;;1.42;0.85;;;24.10;51.70;;;;;;5047719;28;20098;-77
2021/08/07 11:46:08;;;;;;;3.15;1.23;;;24.10;51.70;;;;;;5049957;28;20021;-77
2021/08/07 11:48:43;;;;;;;5.32;1.55;;;24.00;51.20;;;;;;5043754;28;20051;-77
2021/08/07 11:51:10;;;;;;;2.97;1.20;;;23.90;50.90;;;;;;5040710;28;20377;-77
2021/08/07 11:53:42;;;;;;;2.75;1.02;;;23.90;50.90;;;;;;5043070;28;20561;-77
2021/08/07 11:56:12;;;;;;;2.72;1.00;;;23.90;51.50;;;;;;5065896;28;20123;-79
2021/08/07 11:58:42;;;;;;;4.45;1.10;;;24.20;51.20;;;;;;5045588;28;20526;-77
2021/08/07 12:01:08;;;;;;;2.75;1.00;;;24.30;51.20;;;;;;5045215;28;20032;-78
2021/08/07 12:03:41;;;;;;;3.50;1.15;;;24.30;52.00;;;;;;5042708;28;20033;-78
2021/08/07 12:06:07;;;;;;;2.35;0.93;;;24.20;51.30;;;;;;5042430;28;20025;-78
2021/08/07 12:08:34;;;;;;;3.15;0.77;;;24.30;52.00;;;;;;5044171;28;20037;-77
2021/08/07 12:11:01;;;;;;;1.92;0.60;;;24.40;52.00;;;;;;5041971;28;20049;-77
2021/08/07 12:13:36;;;;;;;1.95;0.77;;;24.60;52.40;;;;;;5038406;28;20029;-77
2021/08/07 12:16:08;;;;;;;2.25;0.93;;;24.70;51.40;;;;;;5044089;28;20076;-77
2021/08/07 12:18:45;;;;;;;3.45;1.00;;;24.80;49.70;;;;;;5044652;28;20099;-77
2021/08/07 12:21:13;;;;;;;1.42;0.60;;;24.70;47.70;;;;;;5037992;28;20100;-77
2021/08/07 12:23:45;;;;;;;1.55;0.70;;;24.70;48.20;;;;;;5043173;28;20017;-78
2021/08/07 12:26:12;;;;;;;1.77;0.77;;;24.80;48.10;;;;;;5044379;28;20029;-77
2021/08/07 12:28:37;;;;;;;3.60;1.00;;;24.80;47.20;;;;;;5039935;28;20036;-78
2021/08/07 12:31:03;;;;;;;2.47;0.70;;;24.80;47.40;;;;;;5045861;28;20025;-77
2021/08/07 12:33:32;;;;;;;2.67;0.90;;;24.90;47.10;;;;;;5049157;28;20051;-78
2021/08/07 12:35:57;;;;;;;4.65;1.23;;;24.90;47.10;;;;;;5049338;28;20064;-77
2021/08/07 12:38:27;;;;;;;2.63;0.90;;;25.00;46.90;;;;;;5051030;28;20518;-78
2021/08/07 12:41:01;;;;;;;2.15;0.60;;;25.00;46.50;;;;;;5050883;28;20467;-77
2021/08/07 12:43:31;;;;;;;1.70;0.60;;;25.00;46.70;;;;;;5052326;28;20511;-77
2021/08/07 12:46:03;;;;;;;1.98;0.60;;;25.10;47.00;;;;;;5049815;28;20499;-77
2021/08/07 12:48:46;;;;;;;1.58;0.70;;;25.20;46.80;;;;;;5048320;28;20058;-77
2021/08/07 12:51:33;;;;;;;1.83;0.80;;;25.40;46.20;;;;;;5044848;28;20017;-77
2021/08/07 12:54:02;;;;;;;1.60;0.75;;;25.40;46.30;;;;;;5045113;28;20039;-77